sensor_id;sensor_type;location;lat;lon;timestamp;temperature;humidity
53962;DHT22;39868;53.398;6.564;2022-10-28T00:01:15;18.30;75.50
53962;DHT22;39868;53.398;6.564;2022-10-28T00:03:49;18.30;75.50
53962;DHT22;39868;53.398;6.564;2022-10-28T00:06:23;18.20;75.50
53962;DHT22;39868;53.398;6.564;2022-10-28T00:08:51;18.10;75.50
53962;DHT22;39868;53.398;6.564;2022-10-28T00:11:24;18.10;75.50
53962;DHT22;39868;53.398;6.564;2022-10-28T00:13:53;18.00;75.50
53962;DHT22;39868;53.398;6.564;2022-10-28T00:16:24;17.90;75.40
53962;DHT22;39868;53.398;6.564;2022-10-28T00:18:53;17.90;75.40
53962;DHT22;39868;53.398;6.564;2022-10-28T00:21:27;17.80;75.40
53962;DHT22;39868;53.398;6.564;2022-10-28T00:23:55;17.70;75.40
53962;DHT22;39868;53.398;6.564;2022-10-28T00:26:26;17.70;75.50
53962;DHT22;39868;53.398;6.564;2022-10-28T00:28:59;17.60;75.60
53962;DHT22;39868;53.398;6.564;2022-10-28T00:31:28;17.50;75.80
53962;DHT22;39868;53.398;6.564;2022-10-28T00:33:57;17.50;76.00
53962;DHT22;39868;53.398;6.564;2022-10-28T00:36:28;17.50;76.20
53962;DHT22;39868;53.398;6.564;2022-10-28T00:38:59;17.40;76.40
53962;DHT22;39868;53.398;6.564;2022-10-28T00:41:29;17.40;76.60
53962;DHT22;39868;53.398;6.564;2022-10-28T00:44:00;17.40;76.90
53962;DHT22;39868;53.398;6.564;2022-10-28T00:46:43;17.40;77.10
53962;DHT22;39868;53.398;6.564;2022-10-28T00:49:23;17.40;77.20
53962;DHT22;39868;53.398;6.564;2022-10-28T00:52:00;17.40;77.30
53962;DHT22;39868;53.398;6.564;2022-10-28T00:54:29;17.40;77.20
53962;DHT22;39868;53.398;6.564;2022-10-28T00:56:59;17.40;77.20
53962;DHT22;39868;53.398;6.564;2022-10-28T00:59:32;17.40;77.10
53962;DHT22;39868;53.398;6.564;2022-10-28T01:02:01;17.40;77.10
53962;DHT22;39868;53.398;6.564;2022-10-28T01:04:29;17.40;77.20
53962;DHT22;39868;53.398;6.564;2022-10-28T01:06:58;17.40;77.30
53962;DHT22;39868;53.398;6.564;2022-10-28T01:09:26;17.40;77.30
53962;DHT22;39868;53.398;6.564;2022-10-28T01:17:56;17.30;77.40
53962;DHT22;39868;53.398;6.564;2022-10-28T01:24:04;17.30;77.40
53962;DHT22;39868;53.398;6.564;2022-10-28T01:34:59;17.40;77.60
53962;DHT22;39868;53.398;6.564;2022-10-28T01:37:37;17.40;77.60
53962;DHT22;39868;53.398;6.564;2022-10-28T01:43:10;17.30;77.50
53962;DHT22;39868;53.398;6.564;2022-10-28T01:45:58;17.30;77.30
53962;DHT22;39868;53.398;6.564;2022-10-28T01:48:36;17.30;77.20
53962;DHT22;39868;53.398;6.564;2022-10-28T01:51:15;17.30;77.20
53962;DHT22;39868;53.398;6.564;2022-10-28T01:53:48;17.20;77.00
53962;DHT22;39868;53.398;6.564;2022-10-28T01:56:28;17.20;77.00
53962;DHT22;39868;53.398;6.564;2022-10-28T01:58:58;17.20;77.10
53962;DHT22;39868;53.398;6.564;2022-10-28T02:01:28;17.10;77.10
53962;DHT22;39868;53.398;6.564;2022-10-28T02:03:57;17.10;77.20
53962;DHT22;39868;53.398;6.564;2022-10-28T02:06:28;17.10;77.20
53962;DHT22;39868;53.398;6.564;2022-10-28T02:12:18;17.00;77.30
53962;DHT22;39868;53.398;6.564;2022-10-28T02:14:51;17.00;77.30
53962;DHT22;39868;53.398;6.564;2022-10-28T02:17:37;17.00;77.40
53962;DHT22;39868;53.398;6.564;2022-10-28T02:23:40;16.90;77.40
53962;DHT22;39868;53.398;6.564;2022-10-28T02:25:58;16.80;77.30
53962;DHT22;39868;53.398;6.564;2022-10-28T02:31:26;16.80;77.20
53962;DHT22;39868;53.398;6.564;2022-10-28T02:33:56;16.70;77.10
53962;DHT22;39868;53.398;6.564;2022-10-28T02:36:27;16.70;77.00
53962;DHT22;39868;53.398;6.564;2022-10-28T02:38:57;16.70;77.10
53962;DHT22;39868;53.398;6.564;2022-10-28T02:41:41;16.60;77.20
53962;DHT22;39868;53.398;6.564;2022-10-28T02:44:17;16.60;77.30
53962;DHT22;39868;53.398;6.564;2022-10-28T02:46:48;16.50;77.40
53962;DHT22;39868;53.398;6.564;2022-10-28T02:49:16;16.50;77.60
53962;DHT22;39868;53.398;6.564;2022-10-28T02:51:48;16.50;77.80
53962;DHT22;39868;53.398;6.564;2022-10-28T02:54:32;16.50;78.00
53962;DHT22;39868;53.398;6.564;2022-10-28T02:57:07;16.50;78.20
53962;DHT22;39868;53.398;6.564;2022-10-28T02:59:35;16.50;78.30
53962;DHT22;39868;53.398;6.564;2022-10-28T03:02:04;16.50;78.40
53962;DHT22;39868;53.398;6.564;2022-10-28T03:04:31;16.50;78.50
53962;DHT22;39868;53.398;6.564;2022-10-28T03:06:59;16.60;78.70
53962;DHT22;39868;53.398;6.564;2022-10-28T03:09:26;16.60;78.70
53962;DHT22;39868;53.398;6.564;2022-10-28T03:11:53;16.60;78.70
53962;DHT22;39868;53.398;6.564;2022-10-28T03:14:21;16.60;78.70
53962;DHT22;39868;53.398;6.564;2022-10-28T03:16:48;16.60;78.70
53962;DHT22;39868;53.398;6.564;2022-10-28T03:19:16;16.60;78.60
53962;DHT22;39868;53.398;6.564;2022-10-28T03:21:43;16.70;78.60
53962;DHT22;39868;53.398;6.564;2022-10-28T03:24:11;16.70;78.60
53962;DHT22;39868;53.398;6.564;2022-10-28T03:26:38;16.70;78.60
53962;DHT22;39868;53.398;6.564;2022-10-28T03:29:06;16.70;78.60
53962;DHT22;39868;53.398;6.564;2022-10-28T03:31:33;16.70;78.60
53962;DHT22;39868;53.398;6.564;2022-10-28T03:34:01;16.70;78.60
53962;DHT22;39868;53.398;6.564;2022-10-28T03:36:29;16.70;78.60
53962;DHT22;39868;53.398;6.564;2022-10-28T03:38:56;16.70;78.60
53962;DHT22;39868;53.398;6.564;2022-10-28T03:41:24;16.70;78.60
53962;DHT22;39868;53.398;6.564;2022-10-28T03:43:51;16.70;78.50
53962;DHT22;39868;53.398;6.564;2022-10-28T03:46:19;16.70;78.40
53962;DHT22;39868;53.398;6.564;2022-10-28T03:48:46;16.70;78.30
53962;DHT22;39868;53.398;6.564;2022-10-28T03:51:14;16.70;78.30
53962;DHT22;39868;53.398;6.564;2022-10-28T03:53:41;16.60;78.20
53962;DHT22;39868;53.398;6.564;2022-10-28T03:56:10;16.60;78.20
53962;DHT22;39868;53.398;6.564;2022-10-28T03:58:38;16.60;78.30
53962;DHT22;39868;53.398;6.564;2022-10-28T04:01:07;16.60;78.30
53962;DHT22;39868;53.398;6.564;2022-10-28T04:03:35;16.60;78.40
53962;DHT22;39868;53.398;6.564;2022-10-28T04:06:02;16.60;78.50
53962;DHT22;39868;53.398;6.564;2022-10-28T04:08:30;16.60;78.50
53962;DHT22;39868;53.398;6.564;2022-10-28T04:10:58;16.60;78.60
53962;DHT22;39868;53.398;6.564;2022-10-28T04:13:25;16.60;78.70
53962;DHT22;39868;53.398;6.564;2022-10-28T04:15:53;16.60;78.70
53962;DHT22;39868;53.398;6.564;2022-10-28T04:18:20;16.60;78.80
53962;DHT22;39868;53.398;6.564;2022-10-28T04:20:48;16.60;78.90
53962;DHT22;39868;53.398;6.564;2022-10-28T04:23:16;16.60;79.00
53962;DHT22;39868;53.398;6.564;2022-10-28T04:25:51;16.60;79.10
53962;DHT22;39868;53.398;6.564;2022-10-28T04:28:19;16.60;79.10
53962;DHT22;39868;53.398;6.564;2022-10-28T04:30:47;16.70;78.80
53962;DHT22;39868;53.398;6.564;2022-10-28T04:33:15;16.70;79.00
53962;DHT22;39868;53.398;6.564;2022-10-28T04:35:43;16.70;79.20
53962;DHT22;39868;53.398;6.564;2022-10-28T04:38:11;16.70;79.20
53962;DHT22;39868;53.398;6.564;2022-10-28T04:40:40;16.70;79.30
53962;DHT22;39868;53.398;6.564;2022-10-28T04:43:07;16.80;79.30
53962;DHT22;39868;53.398;6.564;2022-10-28T04:45:38;16.80;79.30
53962;DHT22;39868;53.398;6.564;2022-10-28T04:48:06;16.80;79.20
53962;DHT22;39868;53.398;6.564;2022-10-28T04:50:35;16.80;79.10
53962;DHT22;39868;53.398;6.564;2022-10-28T04:53:09;16.80;78.90
53962;DHT22;39868;53.398;6.564;2022-10-28T04:55:37;16.80;78.80
53962;DHT22;39868;53.398;6.564;2022-10-28T04:58:04;16.80;78.70
53962;DHT22;39868;53.398;6.564;2022-10-28T05:00:32;16.80;78.60
53962;DHT22;39868;53.398;6.564;2022-10-28T05:03:01;16.80;78.60
53962;DHT22;39868;53.398;6.564;2022-10-28T05:05:29;16.80;78.60
53962;DHT22;39868;53.398;6.564;2022-10-28T05:07:56;16.70;78.50
53962;DHT22;39868;53.398;6.564;2022-10-28T05:10:24;16.70;79.00
53962;DHT22;39868;53.398;6.564;2022-10-28T05:12:52;16.70;78.40
53962;DHT22;39868;53.398;6.564;2022-10-28T05:15:20;16.70;78.40
53962;DHT22;39868;53.398;6.564;2022-10-28T05:17:47;16.60;78.30
53962;DHT22;39868;53.398;6.564;2022-10-28T05:20:16;16.60;78.30
53962;DHT22;39868;53.398;6.564;2022-10-28T05:22:52;16.60;78.30
53962;DHT22;39868;53.398;6.564;2022-10-28T05:25:22;16.60;78.30
53962;DHT22;39868;53.398;6.564;2022-10-28T05:27:49;16.50;78.30
53962;DHT22;39868;53.398;6.564;2022-10-28T05:30:18;16.50;78.30
53962;DHT22;39868;53.398;6.564;2022-10-28T05:32:46;16.50;78.30
53962;DHT22;39868;53.398;6.564;2022-10-28T05:35:17;16.40;78.20
53962;DHT22;39868;53.398;6.564;2022-10-28T05:37:45;16.40;78.20
53962;DHT22;39868;53.398;6.564;2022-10-28T05:40:12;16.40;78.30
53962;DHT22;39868;53.398;6.564;2022-10-28T05:42:41;16.30;78.20
53962;DHT22;39868;53.398;6.564;2022-10-28T05:45:09;16.30;78.20
53962;DHT22;39868;53.398;6.564;2022-10-28T05:47:47;16.30;78.20
53962;DHT22;39868;53.398;6.564;2022-10-28T05:50:16;16.20;78.20
53962;DHT22;39868;53.398;6.564;2022-10-28T05:52:52;16.20;78.30
53962;DHT22;39868;53.398;6.564;2022-10-28T05:55:22;16.20;78.40
53962;DHT22;39868;53.398;6.564;2022-10-28T05:57:51;16.20;78.40
53962;DHT22;39868;53.398;6.564;2022-10-28T06:00:22;16.10;78.50
53962;DHT22;39868;53.398;6.564;2022-10-28T06:02:50;16.10;78.50
53962;DHT22;39868;53.398;6.564;2022-10-28T06:05:18;16.10;78.50
53962;DHT22;39868;53.398;6.564;2022-10-28T06:07:45;16.10;78.60
53962;DHT22;39868;53.398;6.564;2022-10-28T06:10:13;16.00;78.60
53962;DHT22;39868;53.398;6.564;2022-10-28T06:12:41;16.00;78.60
53962;DHT22;39868;53.398;6.564;2022-10-28T06:15:09;16.00;78.70
53962;DHT22;39868;53.398;6.564;2022-10-28T06:17:36;16.00;78.70
53962;DHT22;39868;53.398;6.564;2022-10-28T06:20:05;16.00;78.80
53962;DHT22;39868;53.398;6.564;2022-10-28T06:22:32;16.00;78.90
53962;DHT22;39868;53.398;6.564;2022-10-28T06:25:00;16.00;78.80
53962;DHT22;39868;53.398;6.564;2022-10-28T06:27:27;16.00;78.90
53962;DHT22;39868;53.398;6.564;2022-10-28T06:29:55;16.00;79.00
53962;DHT22;39868;53.398;6.564;2022-10-28T06:32:22;16.00;79.10
53962;DHT22;39868;53.398;6.564;2022-10-28T06:34:50;16.00;79.10
53962;DHT22;39868;53.398;6.564;2022-10-28T06:37:17;16.00;79.30
53962;DHT22;39868;53.398;6.564;2022-10-28T06:39:45;16.00;79.40
53962;DHT22;39868;53.398;6.564;2022-10-28T06:42:17;16.00;79.50
53962;DHT22;39868;53.398;6.564;2022-10-28T06:44:45;16.10;79.70
53962;DHT22;39868;53.398;6.564;2022-10-28T06:47:13;16.10;79.80
53962;DHT22;39868;53.398;6.564;2022-10-28T06:49:40;16.10;79.90
53962;DHT22;39868;53.398;6.564;2022-10-28T06:52:08;16.20;80.00
53962;DHT22;39868;53.398;6.564;2022-10-28T06:54:35;16.20;80.00
53962;DHT22;39868;53.398;6.564;2022-10-28T06:57:03;16.30;80.10
53962;DHT22;39868;53.398;6.564;2022-10-28T06:59:31;16.30;80.20
53962;DHT22;39868;53.398;6.564;2022-10-28T07:01:58;16.40;80.20
53962;DHT22;39868;53.398;6.564;2022-10-28T07:04:26;16.40;80.10
53962;DHT22;39868;53.398;6.564;2022-10-28T07:06:54;16.50;80.20
53962;DHT22;39868;53.398;6.564;2022-10-28T07:09:22;16.50;80.10
53962;DHT22;39868;53.398;6.564;2022-10-28T07:11:50;16.50;80.00
53962;DHT22;39868;53.398;6.564;2022-10-28T07:14:21;16.60;80.00
53962;DHT22;39868;53.398;6.564;2022-10-28T07:16:49;16.60;79.90
53962;DHT22;39868;53.398;6.564;2022-10-28T07:19:16;16.60;79.80
53962;DHT22;39868;53.398;6.564;2022-10-28T07:21:48;16.70;79.80
53962;DHT22;39868;53.398;6.564;2022-10-28T07:24:16;16.70;79.90
53962;DHT22;39868;53.398;6.564;2022-10-28T07:26:43;16.70;79.90
53962;DHT22;39868;53.398;6.564;2022-10-28T07:29:13;16.80;80.00
53962;DHT22;39868;53.398;6.564;2022-10-28T07:31:42;16.80;80.10
53962;DHT22;39868;53.398;6.564;2022-10-28T07:34:10;16.90;80.20
53962;DHT22;39868;53.398;6.564;2022-10-28T07:36:37;16.90;80.20
53962;DHT22;39868;53.398;6.564;2022-10-28T07:39:05;17.00;80.30
53962;DHT22;39868;53.398;6.564;2022-10-28T07:41:32;17.00;80.40
53962;DHT22;39868;53.398;6.564;2022-10-28T07:44:00;17.10;80.50
53962;DHT22;39868;53.398;6.564;2022-10-28T07:46:27;17.10;80.50
53962;DHT22;39868;53.398;6.564;2022-10-28T07:48:55;17.20;80.50
53962;DHT22;39868;53.398;6.564;2022-10-28T07:51:32;17.30;80.60
53962;DHT22;39868;53.398;6.564;2022-10-28T07:54:00;17.40;80.60
53962;DHT22;39868;53.398;6.564;2022-10-28T07:56:28;17.40;80.50
53962;DHT22;39868;53.398;6.564;2022-10-28T07:58:55;17.50;80.50
53962;DHT22;39868;53.398;6.564;2022-10-28T08:01:22;17.60;80.50
53962;DHT22;39868;53.398;6.564;2022-10-28T08:03:50;17.60;80.40
53962;DHT22;39868;53.398;6.564;2022-10-28T08:06:19;17.70;80.40
53962;DHT22;39868;53.398;6.564;2022-10-28T08:08:51;17.80;80.40
53962;DHT22;39868;53.398;6.564;2022-10-28T08:11:20;17.80;80.30
53962;DHT22;39868;53.398;6.564;2022-10-28T08:13:51;17.90;80.40
53962;DHT22;39868;53.398;6.564;2022-10-28T08:16:19;18.00;80.30
53962;DHT22;39868;53.398;6.564;2022-10-28T08:18:46;18.10;80.30
53962;DHT22;39868;53.398;6.564;2022-10-28T08:21:14;18.10;80.30
53962;DHT22;39868;53.398;6.564;2022-10-28T08:23:42;18.20;80.30
53962;DHT22;39868;53.398;6.564;2022-10-28T08:26:14;18.30;80.30
53962;DHT22;39868;53.398;6.564;2022-10-28T08:28:42;18.40;80.20
53962;DHT22;39868;53.398;6.564;2022-10-28T08:31:10;18.50;80.20
53962;DHT22;39868;53.398;6.564;2022-10-28T08:33:41;18.50;80.00
53962;DHT22;39868;53.398;6.564;2022-10-28T08:36:12;18.60;79.90
53962;DHT22;39868;53.398;6.564;2022-10-28T08:38:41;18.70;79.80
53962;DHT22;39868;53.398;6.564;2022-10-28T08:43:46;18.90;79.60
53962;DHT22;39868;53.398;6.564;2022-10-28T08:46:46;18.90;79.50
53962;DHT22;39868;53.398;6.564;2022-10-28T08:49:18;19.00;79.50
53962;DHT22;39868;53.398;6.564;2022-10-28T08:52:09;19.10;79.40
53962;DHT22;39868;53.398;6.564;2022-10-28T08:54:48;19.20;79.30
53962;DHT22;39868;53.398;6.564;2022-10-28T08:57:21;19.30;79.30
53962;DHT22;39868;53.398;6.564;2022-10-28T08:59:51;19.30;79.20
53962;DHT22;39868;53.398;6.564;2022-10-28T09:02:22;19.40;79.10
53962;DHT22;39868;53.398;6.564;2022-10-28T09:04:57;19.50;78.90
53962;DHT22;39868;53.398;6.564;2022-10-28T09:07:26;19.60;78.80
53962;DHT22;39868;53.398;6.564;2022-10-28T09:09:54;19.60;78.70
53962;DHT22;39868;53.398;6.564;2022-10-28T09:12:28;19.60;78.60
53962;DHT22;39868;53.398;6.564;2022-10-28T09:20:56;19.80;78.30
53962;DHT22;39868;53.398;6.564;2022-10-28T09:23:34;19.90;78.30
53962;DHT22;39868;53.398;6.564;2022-10-28T09:36:44;20.10;78.00
53962;DHT22;39868;53.398;6.564;2022-10-28T09:39:21;20.10;77.90
53962;DHT22;39868;53.398;6.564;2022-10-28T09:41:56;20.10;77.80
53962;DHT22;39868;53.398;6.564;2022-10-28T09:44:42;20.20;77.80
53962;DHT22;39868;53.398;6.564;2022-10-28T09:47:18;20.20;77.80
53962;DHT22;39868;53.398;6.564;2022-10-28T09:49:48;20.30;77.70
53962;DHT22;39868;53.398;6.564;2022-10-28T09:52:25;20.30;77.70
53962;DHT22;39868;53.398;6.564;2022-10-28T09:54:56;20.30;77.60
53962;DHT22;39868;53.398;6.564;2022-10-28T09:57:29;20.30;77.60
53962;DHT22;39868;53.398;6.564;2022-10-28T09:59:58;20.40;77.60
53962;DHT22;39868;53.398;6.564;2022-10-28T10:02:27;20.40;77.60
53962;DHT22;39868;53.398;6.564;2022-10-28T10:04:56;20.40;77.60
53962;DHT22;39868;53.398;6.564;2022-10-28T10:07:36;20.40;77.50
53962;DHT22;39868;53.398;6.564;2022-10-28T10:10:18;20.40;77.40
53962;DHT22;39868;53.398;6.564;2022-10-28T10:12:50;20.50;77.30
53962;DHT22;39868;53.398;6.564;2022-10-28T10:15:31;20.50;77.30
53962;DHT22;39868;53.398;6.564;2022-10-28T10:18:02;20.50;77.20
53962;DHT22;39868;53.398;6.564;2022-10-28T10:20:56;20.60;77.10
53962;DHT22;39868;53.398;6.564;2022-10-28T10:23:36;20.60;77.10
53962;DHT22;39868;53.398;6.564;2022-10-28T10:26:12;20.60;76.90
53962;DHT22;39868;53.398;6.564;2022-10-28T10:28:47;20.70;76.80
53962;DHT22;39868;53.398;6.564;2022-10-28T10:31:24;20.70;76.70
53962;DHT22;39868;53.398;6.564;2022-10-28T10:33:54;20.70;76.60
53962;DHT22;39868;53.398;6.564;2022-10-28T10:36:24;20.80;76.60
53962;DHT22;39868;53.398;6.564;2022-10-28T10:38:56;20.80;76.60
53962;DHT22;39868;53.398;6.564;2022-10-28T10:41:39;20.80;76.50
53962;DHT22;39868;53.398;6.564;2022-10-28T10:44:23;20.80;76.50
53962;DHT22;39868;53.398;6.564;2022-10-28T10:49:39;20.90;76.50
53962;DHT22;39868;53.398;6.564;2022-10-28T10:52:18;20.90;76.30
53962;DHT22;39868;53.398;6.564;2022-10-28T10:55:21;21.00;76.30
53962;DHT22;39868;53.398;6.564;2022-10-28T10:57:49;21.00;76.60
53962;DHT22;39868;53.398;6.564;2022-10-28T11:00:19;21.00;76.90
53962;DHT22;39868;53.398;6.564;2022-10-28T11:02:49;21.10;76.30
53962;DHT22;39868;53.398;6.564;2022-10-28T11:05:23;21.10;76.20
53962;DHT22;39868;53.398;6.564;2022-10-28T11:08:01;21.20;76.10
53962;DHT22;39868;53.398;6.564;2022-10-28T11:10:32;21.20;76.00
53962;DHT22;39868;53.398;6.564;2022-10-28T11:13:04;21.20;76.40
53962;DHT22;39868;53.398;6.564;2022-10-28T11:15:32;21.20;75.60
53962;DHT22;39868;53.398;6.564;2022-10-28T11:21:07;21.30;75.80
53962;DHT22;39868;53.398;6.564;2022-10-28T11:26:10;21.40;76.00
53962;DHT22;39868;53.398;6.564;2022-10-28T11:57:27;22.00;75.60
53962;DHT22;39868;53.398;6.564;2022-10-28T12:00:23;22.10;75.50
53962;DHT22;39868;53.398;6.564;2022-10-28T12:20:02;22.40;75.10
53962;DHT22;39868;53.398;6.564;2022-10-28T12:22:45;22.50;75.30
53962;DHT22;39868;53.398;6.564;2022-10-28T12:25:17;22.50;74.80
53962;DHT22;39868;53.398;6.564;2022-10-28T12:27:46;22.60;74.90
53962;DHT22;39868;53.398;6.564;2022-10-28T12:30:23;22.60;74.70
53962;DHT22;39868;53.398;6.564;2022-10-28T12:33:12;22.60;74.50
53962;DHT22;39868;53.398;6.564;2022-10-28T12:35:50;22.70;74.80
53962;DHT22;39868;53.398;6.564;2022-10-28T12:41:26;22.70;75.10
53962;DHT22;39868;53.398;6.564;2022-10-28T12:44:27;22.70;74.50
53962;DHT22;39868;53.398;6.564;2022-10-28T12:49:40;22.70;74.30
53962;DHT22;39868;53.398;6.564;2022-10-28T12:52:35;22.70;74.40
53962;DHT22;39868;53.398;6.564;2022-10-28T13:01:09;22.70;74.30
53962;DHT22;39868;53.398;6.564;2022-10-28T13:03:38;22.70;74.20
53962;DHT22;39868;53.398;6.564;2022-10-28T13:28:18;22.80;74.40
53962;DHT22;39868;53.398;6.564;2022-10-28T13:31:07;22.90;74.50
53962;DHT22;39868;53.398;6.564;2022-10-28T13:33:38;22.90;74.40
53962;DHT22;39868;53.398;6.564;2022-10-28T13:36:19;22.90;74.00
53962;DHT22;39868;53.398;6.564;2022-10-28T13:38:54;22.90;73.90
53962;DHT22;39868;53.398;6.564;2022-10-28T13:41:38;23.00;73.80
53962;DHT22;39868;53.398;6.564;2022-10-28T13:44:22;22.90;73.50
53962;DHT22;39868;53.398;6.564;2022-10-28T13:50:08;23.00;73.30
53962;DHT22;39868;53.398;6.564;2022-10-28T13:52:44;23.00;73.50
53962;DHT22;39868;53.398;6.564;2022-10-28T13:57:46;22.90;73.00
53962;DHT22;39868;53.398;6.564;2022-10-28T14:03:32;22.90;72.90
53962;DHT22;39868;53.398;6.564;2022-10-28T14:08:14;22.90;72.70
53962;DHT22;39868;53.398;6.564;2022-10-28T14:13:31;22.80;72.40
53962;DHT22;39868;53.398;6.564;2022-10-28T14:16:23;22.80;72.40
53962;DHT22;39868;53.398;6.564;2022-10-28T14:21:50;22.70;72.40
53962;DHT22;39868;53.398;6.564;2022-10-28T14:24:36;22.70;72.30
53962;DHT22;39868;53.398;6.564;2022-10-28T14:49:35;22.40;72.30
53962;DHT22;39868;53.398;6.564;2022-10-28T14:52:14;22.40;72.20
53962;DHT22;39868;53.398;6.564;2022-10-28T14:54:48;22.40;72.20
53962;DHT22;39868;53.398;6.564;2022-10-28T14:57:18;22.30;71.80
53962;DHT22;39868;53.398;6.564;2022-10-28T14:59:50;22.30;71.80
53962;DHT22;39868;53.398;6.564;2022-10-28T15:04:59;22.30;72.00
53962;DHT22;39868;53.398;6.564;2022-10-28T15:07:28;22.30;72.00
53962;DHT22;39868;53.398;6.564;2022-10-28T15:10:16;22.20;71.90
53962;DHT22;39868;53.398;6.564;2022-10-28T15:12:46;22.20;72.00
53962;DHT22;39868;53.398;6.564;2022-10-28T15:15:22;22.20;71.70
53962;DHT22;39868;53.398;6.564;2022-10-28T15:17:51;22.20;71.90
53962;DHT22;39868;53.398;6.564;2022-10-28T15:22:53;22.10;71.90
53962;DHT22;39868;53.398;6.564;2022-10-28T15:25:36;22.10;71.80
53962;DHT22;39868;53.398;6.564;2022-10-28T15:28:04;22.00;71.70
53962;DHT22;39868;53.398;6.564;2022-10-28T15:30:31;22.00;71.70
53962;DHT22;39868;53.398;6.564;2022-10-28T15:33:18;22.00;71.60
53962;DHT22;39868;53.398;6.564;2022-10-28T15:35:46;22.00;71.80
53962;DHT22;39868;53.398;6.564;2022-10-28T15:38:44;21.90;71.60
53962;DHT22;39868;53.398;6.564;2022-10-28T15:41:41;21.90;71.90
53962;DHT22;39868;53.398;6.564;2022-10-28T15:44:36;21.80;71.80
53962;DHT22;39868;53.398;6.564;2022-10-28T15:47:31;21.80;71.90
53962;DHT22;39868;53.398;6.564;2022-10-28T15:50:00;21.70;72.00
53962;DHT22;39868;53.398;6.564;2022-10-28T15:52:33;21.70;71.80
53962;DHT22;39868;53.398;6.564;2022-10-28T15:55:25;21.70;72.10
53962;DHT22;39868;53.398;6.564;2022-10-28T16:00:56;21.60;72.00
53962;DHT22;39868;53.398;6.564;2022-10-28T16:03:44;21.50;72.10
53962;DHT22;39868;53.398;6.564;2022-10-28T16:09:19;21.50;72.20
53962;DHT22;39868;53.398;6.564;2022-10-28T16:11:52;21.40;72.30
53962;DHT22;39868;53.398;6.564;2022-10-28T16:14:42;21.40;72.30
53962;DHT22;39868;53.398;6.564;2022-10-28T16:17:12;21.30;72.30
53962;DHT22;39868;53.398;6.564;2022-10-28T16:19:53;21.30;72.40
53962;DHT22;39868;53.398;6.564;2022-10-28T16:22:24;21.30;72.50
53962;DHT22;39868;53.398;6.564;2022-10-28T16:24:52;21.20;72.50
53962;DHT22;39868;53.398;6.564;2022-10-28T16:27:22;21.20;72.60
53962;DHT22;39868;53.398;6.564;2022-10-28T16:29:50;21.20;72.60
53962;DHT22;39868;53.398;6.564;2022-10-28T16:32:23;21.20;72.70
53962;DHT22;39868;53.398;6.564;2022-10-28T16:34:51;21.10;72.70
53962;DHT22;39868;53.398;6.564;2022-10-28T16:37:22;21.10;72.80
53962;DHT22;39868;53.398;6.564;2022-10-28T16:39:50;21.00;72.90
53962;DHT22;39868;53.398;6.564;2022-10-28T16:42:19;21.00;73.00
53962;DHT22;39868;53.398;6.564;2022-10-28T16:44:48;21.00;73.00
53962;DHT22;39868;53.398;6.564;2022-10-28T16:47:18;20.90;73.10
53962;DHT22;39868;53.398;6.564;2022-10-28T16:49:46;20.90;73.20
53962;DHT22;39868;53.398;6.564;2022-10-28T16:52:28;20.90;73.20
53962;DHT22;39868;53.398;6.564;2022-10-28T16:54:57;20.80;73.30
53962;DHT22;39868;53.398;6.564;2022-10-28T16:57:25;20.90;73.50
53962;DHT22;39868;53.398;6.564;2022-10-28T16:59:55;20.80;73.40
53962;DHT22;39868;53.398;6.564;2022-10-28T17:04:53;20.80;73.60
53962;DHT22;39868;53.398;6.564;2022-10-28T17:07:21;20.80;73.70
53962;DHT22;39868;53.398;6.564;2022-10-28T17:09:49;20.70;73.70
53962;DHT22;39868;53.398;6.564;2022-10-28T17:12:20;20.70;73.80
53962;DHT22;39868;53.398;6.564;2022-10-28T17:14:50;20.70;73.90
53962;DHT22;39868;53.398;6.564;2022-10-28T17:17:18;20.70;73.90
53962;DHT22;39868;53.398;6.564;2022-10-28T17:19:46;20.60;73.90
53962;DHT22;39868;53.398;6.564;2022-10-28T17:22:13;20.60;74.00
53962;DHT22;39868;53.398;6.564;2022-10-28T17:24:41;20.60;74.10
53962;DHT22;39868;53.398;6.564;2022-10-28T17:27:09;20.50;74.10
53962;DHT22;39868;53.398;6.564;2022-10-28T17:29:37;20.50;74.30
53962;DHT22;39868;53.398;6.564;2022-10-28T17:32:05;20.50;74.30
53962;DHT22;39868;53.398;6.564;2022-10-28T17:34:37;20.50;74.40
53962;DHT22;39868;53.398;6.564;2022-10-28T17:37:06;20.50;74.50
53962;DHT22;39868;53.398;6.564;2022-10-28T17:39:34;20.40;74.50
53962;DHT22;39868;53.398;6.564;2022-10-28T17:42:02;20.40;74.60
53962;DHT22;39868;53.398;6.564;2022-10-28T17:44:31;20.30;74.60
53962;DHT22;39868;53.398;6.564;2022-10-28T17:47:00;20.30;75.00
53962;DHT22;39868;53.398;6.564;2022-10-28T17:49:27;20.30;74.70
53962;DHT22;39868;53.398;6.564;2022-10-28T17:51:56;20.30;74.80
53962;DHT22;39868;53.398;6.564;2022-10-28T17:54:26;20.30;74.90
53962;DHT22;39868;53.398;6.564;2022-10-28T17:56:53;20.30;75.00
53962;DHT22;39868;53.398;6.564;2022-10-28T17:59:22;20.20;74.90
53962;DHT22;39868;53.398;6.564;2022-10-28T18:01:53;20.20;75.10
53962;DHT22;39868;53.398;6.564;2022-10-28T18:04:21;20.20;75.10
53962;DHT22;39868;53.398;6.564;2022-10-28T18:06:54;20.20;75.10
53962;DHT22;39868;53.398;6.564;2022-10-28T18:09:23;20.20;75.30
53962;DHT22;39868;53.398;6.564;2022-10-28T18:11:51;20.10;75.30
53962;DHT22;39868;53.398;6.564;2022-10-28T18:14:23;20.10;75.20
53962;DHT22;39868;53.398;6.564;2022-10-28T18:16:51;20.10;75.40
53962;DHT22;39868;53.398;6.564;2022-10-28T18:19:18;20.10;75.40
53962;DHT22;39868;53.398;6.564;2022-10-28T18:21:50;20.00;75.40
53962;DHT22;39868;53.398;6.564;2022-10-28T18:24:22;20.00;75.60
53962;DHT22;39868;53.398;6.564;2022-10-28T18:26:53;20.00;75.70
53962;DHT22;39868;53.398;6.564;2022-10-28T18:29:22;20.00;75.80
53962;DHT22;39868;53.398;6.564;2022-10-28T18:31:49;20.00;75.80
53962;DHT22;39868;53.398;6.564;2022-10-28T18:34:18;20.00;75.90
53962;DHT22;39868;53.398;6.564;2022-10-28T18:36:50;20.00;76.10
53962;DHT22;39868;53.398;6.564;2022-10-28T18:39:18;19.90;76.10
53962;DHT22;39868;53.398;6.564;2022-10-28T18:41:46;20.00;76.20
53962;DHT22;39868;53.398;6.564;2022-10-28T18:44:14;20.00;76.30
53962;DHT22;39868;53.398;6.564;2022-10-28T18:46:46;20.00;76.40
53962;DHT22;39868;53.398;6.564;2022-10-28T18:49:14;20.00;76.40
53962;DHT22;39868;53.398;6.564;2022-10-28T18:51:42;19.90;76.50
53962;DHT22;39868;53.398;6.564;2022-10-28T18:54:09;19.90;76.60
53962;DHT22;39868;53.398;6.564;2022-10-28T18:56:38;19.90;76.60
53962;DHT22;39868;53.398;6.564;2022-10-28T18:59:08;19.90;76.70
53962;DHT22;39868;53.398;6.564;2022-10-28T19:01:36;20.00;76.70
53962;DHT22;39868;53.398;6.564;2022-10-28T19:04:04;19.90;76.70
53962;DHT22;39868;53.398;6.564;2022-10-28T19:06:32;19.90;76.80
53962;DHT22;39868;53.398;6.564;2022-10-28T19:09:02;20.00;76.90